Time;durP1;ratioP1;P1;durP2;ratioP2;P2;SDS_P1;SDS_P2;PMS_P1;PMS_P2;Temp;Humidity;BMP_temperature;BMP_pressure;BME280_temperature;BME280_humidity;BME280_pressure;Samples;Min_cycle;Max_cycle;Signal;HPM_P1;HPM_P2
2022/07/08 00:39:39;;;;;;;;;;;;;;;;;;;;;
2022/07/08 00:56:57;;;;;;;;;;;;;;;;;;;;;
2022/07/08 01:07:47;;;;;;;;;;;;;;;;;;;;;
2022/07/08 01:11:00;;;;;;;;;3.00;2.67;;;;;17.27;53.55;102787.78;4901055;28;73088;-80
2022/07/08 01:21:52;;;;;;;;;;;;;;;;;;;;;
2022/07/08 01:25:12;;;;;;;;;;;;;;;;;;;;;
2022/07/08 01:28:30;;;;;;;;;;;;;;;;;;;;;
2022/07/08 02:14:14;;;;;;;;;;;;;;;;;;;;;
2022/07/08 02:17:54;;;;;;;;;;;;;;;;;;;;;
2022/07/08 02:21:17;;;;;;;;;3.00;3.00;;;;;16.07;55.49;102764.28;4963223;28;75114;-80
2022/07/08 02:32:12;;;;;;;;;;;;;;;;;;;;;
2022/07/08 02:46:44;;;;;;;;;;;;;;;;;;;;;
2022/07/08 04:38:01;;;;;;;;;8.75;8.75;;;;;15.65;57.98;102833.88;4886450;29;45545;-81
2022/07/08 04:45:02;;;;;;;;;;;;;;;;;;;;;
2022/07/08 05:14:37;;;;;;;;;;;;;;;;;;;;;
2022/07/08 05:43:49;;;;;;;;;;;;;;;;;;;;;
2022/07/08 06:16:23;;;;;;;;;;;;;;;;;;;;;
2022/07/08 06:19:26;;;;;;;;;12.00;6.75;;;;;16.75;56.66;102902.91;4930640;28;45550;-80
2022/07/08 06:29:40;;;;;;;;;;;;;;;;;;;;;
2022/07/08 06:40:06;;;;;;;;;;;;;;;;;;;;;
2022/07/08 06:57:38;;;;;;;;;;;;;;;;;;;;;
2022/07/08 07:01:10;;;;;;;;;7.50;5.50;;;;;17.55;54.06;102896.13;5028079;28;67246;-80
2022/07/08 07:08:10;;;;;;;;;;;;;;;;;;;;;
2022/07/08 07:11:27;;;;;;;;;;;;;;;;;;;;;
2022/07/08 07:17:48;;;;;;;;;;;;;;;;;;;;;
2022/07/08 07:28:34;;;;;;;;;;;;;;;;;;;;;
2022/07/08 07:32:08;;;;;;;;;6.00;4.75;;;;;18.22;52.13;102915.75;5004298;28;73204;-79
2022/07/08 07:38:04;;;;;;;;;3.00;3.00;;;;;18.39;51.20;102900.63;5043288;28;45355;-80
2022/07/08 07:40:34;;;;;;;;;3.00;3.00;;;;;18.55;51.47;102924.59;5081395;28;45188;-80
2022/07/08 07:43:05;;;;;;;;;3.00;3.00;;;;;18.54;51.18;102915.69;5062829;28;45660;-78
2022/07/08 07:45:59;;;;;;;;;4.00;3.00;;;;;18.64;51.26;102920.13;5081465;28;45219;-79
2022/07/08 07:48:32;;;;;;;;;2.50;2.50;;;;;18.77;50.55;102921.03;5070566;28;45343;-79
2022/07/08 07:51:10;;;;;;;;;4.33;3.33;;;;;18.78;50.22;102909.44;5081500;28;45267;-79
2022/07/08 07:53:42;;;;;;;;;5.33;4.67;;;;;18.88;50.31;102905.84;5081279;28;46186;-77
2022/07/08 07:56:15;;;;;;;;;7.00;4.00;;;;;18.99;49.81;102908.47;5068124;28;45649;-79
2022/07/08 07:58:43;;;;;;;;;7.75;4.50;;;;;19.01;50.05;102906.69;5081284;28;45443;-79
2022/07/08 08:01:19;;;;;;;;;4.50;4.50;;;;;19.07;49.99;102913.78;5049860;28;45243;-80
2022/07/08 08:03:52;;;;;;;;;4.50;4.50;;;;;19.16;49.88;102919.09;5081310;28;45250;-80
2022/07/08 08:06:22;;;;;;;;;5.00;5.00;;;;;19.22;49.82;102916.41;5080569;28;45330;-80
2022/07/08 08:08:58;;;;;;;;;4.33;4.00;;;;;19.30;49.48;102911.91;5080882;28;45475;-79
2022/07/08 08:11:50;;;;;;;;;;;;;;;;;;;;;
2022/07/08 08:14:31;;;;;;;;;2.00;2.00;;;;;19.46;49.05;102918.06;5076511;27;45805;-79
2022/07/08 08:17:05;;;;;;;;;4.50;3.75;;;;;19.60;48.84;102915.28;5079505;28;45386;-79
2022/07/08 08:19:43;;;;;;;;;5.50;3.75;;;;;19.66;48.84;102907.25;5078805;28;45331;-79
2022/07/08 08:22:33;;;;;;;;;7.67;6.00;;;;;19.75;48.56;102912.56;5074509;28;45303;-79
2022/07/08 08:25:26;;;;;;;;;7.25;6.00;;;;;19.81;48.44;102911.63;5061993;28;45489;-79
2022/07/08 08:28:08;;;;;;;;;4.33;4.00;;;;;19.81;48.20;102912.50;5077329;28;45489;-79
2022/07/08 08:31:00;;;;;;;;;6.00;6.00;;;;;19.86;47.90;102917.81;5062026;28;45308;-79
2022/07/08 08:33:42;;;;;;;;;8.00;5.75;;;;;19.88;47.79;102902.63;5062094;28;45579;-80
2022/07/08 08:36:26;;;;;;;;;7.75;7.25;;;;;19.97;47.93;102901.69;5080132;28;45432;-80
2022/07/08 08:38:58;;;;;;;;;3.50;3.50;;;;;20.06;47.43;102904.28;5080258;28;45518;-80
2022/07/08 08:59:09;;;;;;;;;8.00;6.00;;;;;20.48;46.49;102880.69;4952055;28;45881;-79
2022/07/08 09:01:54;;;;;;;;;8.00;7.00;;;;;20.59;46.36;102881.50;5070450;28;45390;-78
2022/07/08 09:04:44;;;;;;;;;8.00;7.00;;;;;20.80;46.37;102876.78;5053178;28;45657;-78
2022/07/08 09:07:25;;;;;;;;;7.75;7.50;;;;;20.90;45.65;102873.06;5078381;28;45374;-78
2022/07/08 09:10:01;;;;;;;;;7.25;6.25;;;;;21.01;45.65;102871.16;5075319;28;46060;-78
2022/07/08 09:12:51;;;;;;;;;7.33;6.00;;;;;21.06;45.25;102871.09;5062024;27;45726;-77
2022/07/08 09:15:58;;;;;;;;;;;;;;;;;;;;;
2022/07/08 09:18:38;;;;;;;;;6.00;6.00;;;;;21.15;44.91;102868.28;5075550;28;72876;-78
2022/07/08 09:21:24;;;;;;;;;;;;;;;;;;;;;
2022/07/08 09:24:18;;;;;;;;;7.00;5.67;;;;;21.28;43.77;102863.66;5066188;28;71192;-78
2022/07/08 09:27:17;;;;;;;;;8.33;7.67;;;;;21.29;44.11;102865.41;5059741;28;47490;-77
2022/07/08 09:30:05;;;;;;;;;6.00;4.67;;;;;21.34;43.52;102863.56;5074772;28;45595;-77
2022/07/08 09:32:45;;;;;;;;;9.25;8.00;;;;;21.37;43.52;102866.19;5059644;28;45533;-77
2022/07/08 09:35:35;;;;;;;;;7.00;7.00;;;;;21.43;43.58;102860.75;5065930;28;45624;-77
2022/07/08 09:38:40;;;;;;;;;7.25;7.25;;;;;21.51;43.40;102860.66;5057539;28;47961;-77
2022/07/08 09:41:33;;;;;;;;;7.50;6.75;;;;;21.58;43.27;102856.97;5074116;28;45357;-79
2022/07/08 09:44:23;;;;;;;;;6.33;6.00;;;;;21.65;43.45;102845.25;5059888;28;45687;-78
2022/07/08 09:50:38;;;;;;;;;6.75;6.75;;;;;21.84;42.36;102853.88;5047586;28;46011;-79
2022/07/08 09:54:00;;;;;;;;;8.00;7.50;;;;;21.85;42.05;102858.31;5066999;28;45320;-79
2022/07/08 09:57:02;;;;;;;;;4.33;4.33;;;;;21.95;42.09;102859.91;5070041;28;45648;-80
2022/07/08 10:00:45;;;;;;;;;;;;;;;;;;;;;
2022/07/08 10:03:55;;;;;;;;;;;;;;;;;;;;;
2022/07/08 10:07:18;;;;;;;;;;;;;;;;;;;;;
2022/07/08 10:17:17;;;;;;;;;7.67;6.67;;;;;22.44;41.08;102847.41;5063170;28;45633;-79
2022/07/08 10:20:05;;;;;;;;;;;;;;;;;;;;;
2022/07/08 10:30:36;;;;;;;;;;;;;;;;;;;;;
2022/07/08 10:41:09;;;;;;;;;3.00;3.00;;;;;23.05;38.40;102842.59;4858148;28;45552;-81
2022/07/08 10:47:44;;;;;;;;;16.50;16.50;;;;;23.40;37.77;102827.44;5001200;28;46782;-79
2022/07/08 10:54:07;;;;;;;;;;;;;;;;;;;;;
2022/07/08 11:01:40;;;;;;;;;;;;;;;;;;;;;
2022/07/08 11:04:31;;;;;;;;;3.67;3.67;;;;;24.42;35.53;102832.84;4971445;28;45527;-79
2022/07/08 11:07:54;;;;;;;;;3.67;3.67;;;;;24.61;35.03;102832.34;4997684;28;45413;-79
2022/07/08 11:11:02;;;;;;;;;;;;;;;;;;;;;
2022/07/08 11:28:22;;;;;;;;;;;;;;;;;;;;;
2022/07/08 11:31:50;;;;;;;;;;;;;;;;;;;;;
2022/07/08 11:35:30;;;;;;;;;;;;;;;;;;;;;
2022/07/08 11:50:06;;;;;;;;;1.00;1.00;;;;;26.85;31.54;102803.16;4764667;29;45866;-82
2022/07/08 11:52:45;;;;;;;;;2.33;2.33;;;;;27.05;30.87;102797.84;4771602;29;46470;-81
2022/07/08 11:58:42;;;;;;;;;4.00;4.00;;;;;27.57;29.48;102793.97;4851539;29;45578;-80
2022/07/08 12:02:22;;;;;;;;;;;;;;;;;;;;;
2022/07/08 12:23:16;;;;;;;;;;;;;;;;;;;;;
2022/07/08 14:32:57;;;;;;;;;0.00;0.00;;;;;30.80;24.26;102687.34;4898519;29;45531;-82
2022/07/08 14:35:26;;;;;;;;;0.67;0.67;;;;;30.73;24.72;102677.78;4898743;28;46293;-81
2022/07/08 15:13:27;;;;;;;;;;;;;;;;;;;;;
2022/07/08 15:16:29;;;;;;;;;;;;;;;;;;;;;
2022/07/08 15:33:25;;;;;;;;;;;;;;;;;;;;;
2022/07/08 15:57:34;;;;;;;;;;;;;;;;;;;;;
2022/07/08 16:36:42;;;;;;;;;1.00;1.00;;;;;31.65;22.96;102579.69;4917838;28;45466;-84
2022/07/08 16:39:12;;;;;;;;;0.00;0.00;;;;;31.62;22.94;102585.31;4924993;28;45496;-78
2022/07/08 16:41:40;;;;;;;;;1.33;1.33;;;;;31.62;23.17;102582.59;4984665;28;47253;-80
2022/07/08 17:06:02;;;;;;;;;1.00;1.00;;;;;32.71;22.58;102553.63;4873761;29;45343;-82
2022/07/08 17:08:43;;;;;;;;;1.33;0.00;;;;;34.84;21.28;102565.38;4865995;29;47598;-82
2022/07/08 17:11:31;;;;;;;;;0.33;0.33;;;;;37.03;20.14;102562.88;4907248;28;45710;-81
2022/07/08 17:14:12;;;;;;;;;;;;;;;;;;;;;
2022/07/08 17:21:02;;;;;;;;;0.33;0.33;;;;;41.80;16.64;102539.03;4914546;28;45624;-82
2022/07/08 17:39:03;;;;;;;;;1.00;0.67;;;;;39.61;16.53;102532.38;5020410;28;45626;-82
2022/07/08 17:41:35;;;;;;;;;1.33;1.33;;;;;38.68;17.17;102520.31;5025978;28;45485;-85
2022/07/08 17:44:02;;;;;;;;;0.00;0.00;;;;;37.95;17.24;102531.72;5021603;28;48206;-84
2022/07/08 17:50:04;;;;;;;;;1.33;1.00;;;;;36.20;18.39;102517.81;4941892;28;45485;-90
2022/07/08 17:56:07;;;;;;;;;1.00;1.00;;;;;34.94;19.88;102520.84;4953851;28;46367;-80
2022/07/08 17:58:32;;;;;;;;;1.00;1.00;;;;;34.54;19.94;102518.47;5003293;28;46336;-81
2022/07/08 18:01:00;;;;;;;;;0.67;0.67;;;;;34.22;20.35;102516.38;5020533;28;45200;-80
2022/07/08 18:03:26;;;;;;;;;0.00;0.00;;;;;33.94;20.67;102514.81;5020012;28;45407;-79
2022/07/08 18:05:53;;;;;;;;;1.00;0.33;;;;;33.64;21.03;102513.38;5018456;28;48046;-79
2022/07/08 18:08:22;;;;;;;;;2.00;2.00;;;;;33.34;21.04;102508.28;5019722;28;45374;-79
2022/07/08 18:10:48;;;;;;;;;0.67;0.67;;;;;33.01;21.47;102511.56;5019946;28;45279;-79
2022/07/08 18:13:13;;;;;;;;;1.00;1.00;;;;;32.63;21.91;102521.41;5018380;28;45505;-79
2022/07/08 18:15:38;;;;;;;;;0.33;0.33;;;;;32.29;22.21;102509.19;5032557;28;45368;-78
2022/07/08 18:18:04;;;;;;;;;0.67;0.67;;;;;32.05;22.54;102517.16;5021186;28;45345;-79
2022/07/08 18:20:31;;;;;;;;;1.00;1.00;;;;;31.85;22.65;102513.00;5021483;28;45395;-79
2022/07/08 18:22:57;;;;;;;;;1.00;1.00;;;;;31.69;22.89;102509.53;5021736;28;45805;-79
2022/07/08 18:25:25;;;;;;;;;1.00;1.00;;;;;31.50;23.53;102516.19;5020821;28;45856;-79
2022/07/08 18:27:50;;;;;;;;;0.33;0.00;;;;;31.33;23.62;102505.44;5014522;28;45698;-79
2022/07/08 18:30:17;;;;;;;;;1.33;1.33;;;;;31.22;23.80;102503.41;5020410;28;45561;-79
2022/07/08 18:32:43;;;;;;;;;4.00;4.00;;;;;31.16;24.37;102510.13;5021901;28;45181;-78
2022/07/08 18:35:08;;;;;;;;;1.00;1.00;;;;;31.07;24.14;102507.13;5020454;28;47357;-79
2022/07/08 18:37:34;;;;;;;;;0.00;0.00;;;;;30.94;24.01;102498.84;5034002;28;45998;-79
2022/07/08 18:39:59;;;;;;;;;2.00;1.00;;;;;30.78;24.17;102507.91;5021943;28;45246;-78
2022/07/08 18:42:25;;;;;;;;;1.00;1.00;;;;;30.69;24.77;102494.88;5020308;28;45280;-79
2022/07/08 18:44:51;;;;;;;;;2.00;2.00;;;;;30.63;24.10;102492.53;5020441;28;47001;-79
2022/07/08 18:47:16;;;;;;;;;1.00;1.00;;;;;30.52;25.00;102495.88;5022088;28;45430;-79
2022/07/08 18:49:44;;;;;;;;;1.67;1.67;;;;;30.46;24.54;102493.56;5022081;28;45353;-79
2022/07/08 18:52:09;;;;;;;;;1.33;1.00;;;;;30.37;24.77;102499.56;5021904;28;45317;-78
2022/07/08 18:54:34;;;;;;;;;2.67;2.67;;;;;30.26;25.17;102497.47;5021611;28;45452;-79
2022/07/08 18:57:03;;;;;;;;;2.00;2.00;;;;;30.21;25.32;102498.69;5020625;28;45761;-78
2022/07/08 18:59:31;;;;;;;;;1.67;0.67;;;;;30.13;25.82;102506.41;5020799;28;45334;-78
2022/07/08 19:02:01;;;;;;;;;2.33;2.33;;;;;30.03;25.71;102500.63;5021975;28;45460;-79
2022/07/08 19:04:29;;;;;;;;;3.00;3.00;;;;;29.93;25.69;102493.97;5021928;28;46207;-78
2022/07/08 19:06:56;;;;;;;;;2.00;2.00;;;;;29.80;25.82;102496.50;5021734;28;45434;-78
2022/07/08 19:09:24;;;;;;;;;2.67;2.67;;;;;29.66;26.21;102491.88;5020515;28;45452;-78
2022/07/08 19:11:49;;;;;;;;;1.33;1.33;;;;;29.47;26.69;102492.00;5021544;28;45365;-78
2022/07/08 19:14:17;;;;;;;;;4.67;4.67;;;;;29.30;27.05;102495.66;5021623;28;45337;-78
2022/07/08 19:16:43;;;;;;;;;4.00;4.00;;;;;29.16;26.47;102500.94;5021690;28;45428;-78
2022/07/08 19:19:13;;;;;;;;;2.00;2.00;;;;;28.99;27.28;102496.41;5022173;28;45245;-78
2022/07/08 19:21:39;;;;;;;;;1.67;1.67;;;;;28.85;27.59;102499.84;5021408;28;45563;-78
2022/07/08 19:24:07;;;;;;;;;2.00;2.00;;;;;28.70;27.61;102497.94;5020206;28;46253;-79
2022/07/08 19:26:33;;;;;;;;;2.33;1.00;;;;;28.58;27.50;102510.31;5020022;28;45242;-79
2022/07/08 19:29:00;;;;;;;;;5.00;5.00;;;;;28.42;28.07;102495.75;5021129;28;45303;-79
2022/07/08 19:31:26;;;;;;;;;6.00;4.00;;;;;28.32;28.56;102503.47;5021681;28;45398;-79
2022/07/08 19:33:51;;;;;;;;;1.67;1.00;;;;;28.20;27.97;102498.66;5020267;28;48439;-78
2022/07/08 19:36:19;;;;;;;;;2.00;2.00;;;;;28.06;28.60;102502.06;5021384;28;45638;-78
2022/07/08 19:38:44;;;;;;;;;2.33;2.33;;;;;27.95;28.61;102504.41;5031314;28;45490;-78
2022/07/08 19:41:12;;;;;;;;;6.67;5.33;;;;;27.87;29.00;102502.09;5028026;28;45500;-78
2022/07/08 19:43:50;;;;;;;;;6.33;6.33;;;;;27.78;29.39;102500.69;5028937;28;47891;-78
2022/07/08 19:46:18;;;;;;;;;3.67;3.67;;;;;27.68;29.24;102497.53;5020300;28;45565;-78
2022/07/08 19:48:45;;;;;;;;;3.33;3.33;;;;;27.56;29.21;102495.41;5020172;28;45588;-78
2022/07/08 19:51:16;;;;;;;;;2.00;2.00;;;;;27.43;29.82;102502.34;5007074;28;45329;-78
2022/07/08 19:53:42;;;;;;;;;3.00;2.00;;;;;27.34;29.99;102505.47;5019686;28;46843;-78
2022/07/08 19:56:09;;;;;;;;;2.00;2.00;;;;;27.28;30.27;102515.63;5021243;28;45548;-78
2022/07/08 19:58:37;;;;;;;;;2.00;2.00;;;;;27.18;30.32;102499.88;5007791;28;45357;-79
2022/07/08 20:01:08;;;;;;;;;3.00;2.00;;;;;27.13;30.47;102507.28;5019446;28;45554;-78
2022/07/08 20:03:36;;;;;;;;;4.00;3.33;;;;;27.04;30.99;102506.75;5019480;28;47090;-78
2022/07/08 20:06:05;;;;;;;;;5.00;4.00;;;;;26.99;30.87;102514.19;5021020;28;45233;-79
2022/07/08 20:08:31;;;;;;;;;3.00;3.00;;;;;26.95;31.09;102519.84;5020861;28;45364;-79
2022/07/08 20:10:58;;;;;;;;;4.00;3.00;;;;;26.89;31.22;102521.00;5019045;28;45318;-78
2022/07/08 20:13:26;;;;;;;;;1.00;1.00;;;;;26.83;31.00;102521.25;5021054;28;46441;-78
2022/07/08 20:15:52;;;;;;;;;3.00;3.00;;;;;26.74;31.27;102516.25;5020989;28;45335;-79
2022/07/08 20:18:19;;;;;;;;;2.00;1.33;;;;;26.67;31.46;102521.03;5020758;28;45928;-78
2022/07/08 20:20:47;;;;;;;;;2.00;2.00;;;;;26.60;31.68;102522.25;5018367;28;45520;-78
2022/07/08 20:23:13;;;;;;;;;1.67;1.67;;;;;26.55;31.40;102519.75;5020495;28;46183;-79
2022/07/08 20:25:38;;;;;;;;;6.33;5.00;;;;;26.52;32.13;102527.09;5020800;28;45390;-79
2022/07/08 20:28:04;;;;;;;;;3.67;3.67;;;;;26.46;31.94;102532.72;5019469;28;45379;-78
2022/07/08 20:30:29;;;;;;;;;0.67;0.67;;;;;26.40;32.47;102528.44;5020786;28;45465;-78
2022/07/08 20:33:00;;;;;;;;;2.67;2.00;;;;;26.36;32.52;102530.41;5019240;28;46924;-79
2022/07/08 20:35:25;;;;;;;;;3.00;3.00;;;;;26.32;32.40;102534.16;5020733;28;45232;-78
2022/07/08 20:37:50;;;;;;;;;7.33;6.33;;;;;26.29;33.08;102538.81;5020518;28;45370;-78
2022/07/08 20:40:19;;;;;;;;;2.00;2.00;;;;;26.22;32.97;102534.59;5018879;28;45675;-78
2022/07/08 20:42:44;;;;;;;;;3.33;3.33;;;;;26.16;32.86;102528.50;5035692;28;47285;-78
2022/07/08 20:45:15;;;;;;;;;3.33;2.33;;;;;26.14;33.27;102543.00;5018993;28;45507;-78
2022/07/08 20:47:42;;;;;;;;;3.33;3.33;;;;;26.06;33.42;102526.25;5019249;28;45372;-78
2022/07/08 20:50:11;;;;;;;;;3.33;3.00;;;;;26.03;33.60;102524.56;5019184;28;45462;-79
2022/07/08 20:52:37;;;;;;;;;4.00;4.00;;;;;25.96;33.29;102523.06;5020272;28;45342;-78
2022/07/08 20:55:11;;;;;;;;;4.00;4.00;;;;;25.95;34.13;102526.69;5020443;28;45344;-79
2022/07/08 20:57:37;;;;;;;;;3.00;3.00;;;;;25.90;33.85;102531.38;5018391;28;45227;-79
2022/07/08 21:00:05;;;;;;;;;3.00;3.00;;;;;25.84;33.97;102523.53;5019035;28;45196;-78
2022/07/08 21:02:33;;;;;;;;;3.33;3.33;;;;;25.82;34.06;102534.38;5020168;28;45688;-78
2022/07/08 21:04:59;;;;;;;;;4.00;3.00;;;;;25.79;34.28;102533.59;5020445;28;45354;-78
2022/07/08 21:07:27;;;;;;;;;4.00;3.00;;;;;25.71;34.51;102524.00;5018803;28;45436;-78
2022/07/08 21:09:55;;;;;;;;;4.00;4.00;;;;;25.69;34.51;102523.19;5020133;28;45534;-78
2022/07/08 21:12:20;;;;;;;;;4.33;3.33;;;;;25.67;34.50;102526.88;5019756;28;46446;-78
2022/07/08 21:14:48;;;;;;;;;3.67;3.67;;;;;25.60;34.78;102522.63;5020134;28;45627;-78
2022/07/08 21:17:15;;;;;;;;;3.33;3.00;;;;;25.59;34.83;102529.00;5005762;28;45363;-78
2022/07/08 21:19:41;;;;;;;;;4.00;4.00;;;;;25.56;34.89;102531.81;5015904;28;45609;-78
2022/07/08 21:22:06;;;;;;;;;3.33;3.33;;;;;25.52;35.04;102534.59;5019705;28;46233;-78
2022/07/08 21:24:32;;;;;;;;;3.00;2.00;;;;;25.47;35.28;102523.13;5019703;28;45292;-78
2022/07/08 21:27:00;;;;;;;;;3.67;3.67;;;;;25.41;35.22;102523.34;5020336;28;45221;-78
2022/07/08 21:29:27;;;;;;;;;2.67;2.67;;;;;25.41;35.21;102530.56;5018519;28;45579;-77
2022/07/08 21:31:56;;;;;;;;;4.33;4.33;;;;;25.39;35.48;102521.63;5018532;28;47090;-78
2022/07/08 21:34:25;;;;;;;;;5.00;5.00;;;;;25.33;35.37;102519.19;5018476;28;45366;-78
2022/07/08 21:36:52;;;;;;;;;2.67;2.67;;;;;25.27;35.95;102521.16;5018324;28;45519;-78
2022/07/08 21:39:20;;;;;;;;;6.00;4.00;;;;;25.26;35.50;102524.81;5018099;28;45448;-78
2022/07/08 21:41:48;;;;;;;;;5.33;4.00;;;;;25.23;35.58;102534.81;5035079;28;47274;-78
2022/07/08 21:44:16;;;;;;;;;3.00;3.00;;;;;25.19;35.80;102527.78;5019584;28;45318;-78
2022/07/08 21:46:44;;;;;;;;;4.33;4.33;;;;;25.14;36.05;102527.03;5019648;28;45346;-78
2022/07/08 21:49:15;;;;;;;;;5.00;5.00;;;;;25.11;36.15;102525.34;5031863;28;45522;-79
2022/07/08 21:52:05;;;;;;;;;;;;;;;;;;;;;
2022/07/08 21:54:30;;;;;;;;;5.00;5.00;;;;;25.02;36.56;102531.03;5013287;28;73087;-79
2022/07/08 21:57:01;;;;;;;;;3.67;3.00;;;;;24.99;36.54;102531.16;5009494;28;46294;-79
2022/07/08 21:59:39;;;;;;;;;;;;;;;;;;;;;
2022/07/08 22:02:12;;;;;;;;;3.33;2.67;;;;;24.91;36.75;102533.25;5011735;28;75152;-78
2022/07/08 22:04:38;;;;;;;;;3.67;3.33;;;;;24.91;36.78;102535.94;5022997;28;45479;-77
2022/07/08 22:07:06;;;;;;;;;4.67;4.67;;;;;24.86;36.55;102541.50;5020514;28;45720;-78
2022/07/08 22:09:34;;;;;;;;;5.67;5.00;;;;;24.81;36.90;102532.69;5004586;28;45402;-78
2022/07/08 22:12:04;;;;;;;;;4.00;4.00;;;;;24.80;36.87;102531.78;5004867;28;48511;-78
2022/07/08 22:14:30;;;;;;;;;5.00;4.00;;;;;24.79;37.14;102542.66;5002397;28;45399;-78
2022/07/08 22:16:58;;;;;;;;;4.33;4.00;;;;;24.74;37.36;102550.00;5004671;28;45475;-79
2022/07/08 22:19:26;;;;;;;;;6.67;5.00;;;;;24.69;37.23;102544.75;5004041;28;45572;-79
2022/07/08 22:21:58;;;;;;;;;5.33;4.00;;;;;24.65;37.28;102554.78;5009334;28;47216;-79
2022/07/08 22:24:31;;;;;;;;;3.00;3.00;;;;;24.60;37.64;102551.34;5008169;28;45740;-78
2022/07/08 22:26:59;;;;;;;;;2.67;2.67;;;;;24.50;37.60;102536.44;5007355;28;45455;-78
2022/07/08 22:29:26;;;;;;;;;3.00;1.33;;;;;24.46;38.04;102545.56;5015263;28;45805;-79
2022/07/08 22:31:52;;;;;;;;;2.00;2.00;;;;;24.37;38.30;102541.31;5006762;28;45481;-79
2022/07/08 22:34:17;;;;;;;;;3.67;3.00;;;;;24.37;37.84;102545.81;5002613;28;45485;-77
2022/07/08 22:36:42;;;;;;;;;2.00;2.00;;;;;24.31;38.35;102551.41;5016970;28;46016;-79
2022/07/08 22:39:08;;;;;;;;;3.67;3.00;;;;;24.32;38.19;102545.06;5018155;28;45532;-77
2022/07/08 22:41:36;;;;;;;;;3.00;3.00;;;;;24.28;38.34;102554.19;5008060;28;45477;-80
2022/07/08 22:44:11;;;;;;;;;3.00;3.00;;;;;24.18;38.38;102549.09;5019237;28;45347;-78
2022/07/08 22:46:39;;;;;;;;;1.00;1.00;;;;;24.12;38.66;102543.91;5008126;28;45605;-79
2022/07/08 22:49:05;;;;;;;;;2.00;2.00;;;;;24.11;39.30;102552.94;5010598;28;45694;-78
2022/07/08 22:51:30;;;;;;;;;3.00;2.67;;;;;24.05;39.18;102546.84;5011761;28;47182;-79
2022/07/08 22:53:58;;;;;;;;;3.00;3.00;;;;;24.04;39.51;102553.16;5008028;28;45323;-79
2022/07/08 22:56:28;;;;;;;;;3.00;3.00;;;;;23.96;39.53;102553.41;5011866;28;45573;-78
2022/07/08 22:58:53;;;;;;;;;4.33;4.00;;;;;23.92;39.81;102549.94;5009937;28;45392;-78
2022/07/08 23:01:19;;;;;;;;;2.00;2.00;;;;;23.90;39.89;102550.91;5011131;28;45427;-79
2022/07/08 23:03:46;;;;;;;;;3.00;3.00;;;;;23.84;40.50;102545.69;5009238;28;45746;-77
2022/07/08 23:06:12;;;;;;;;;3.00;3.00;;;;;23.80;40.27;102538.66;5013247;28;45475;-79
2022/07/08 23:08:40;;;;;;;;;2.00;2.00;;;;;23.76;40.60;102544.13;5019360;28;45712;-78
2022/07/08 23:11:06;;;;;;;;;3.00;3.00;;;;;23.75;40.62;102549.56;5014180;28;46206;-79
2022/07/08 23:13:36;;;;;;;;;3.00;3.00;;;;;23.69;41.07;102547.03;5010992;28;45829;-78
2022/07/08 23:16:02;;;;;;;;;3.33;3.00;;;;;23.66;41.09;102547.13;5013757;28;45568;-78
2022/07/08 23:18:30;;;;;;;;;4.00;2.67;;;;;23.62;41.22;102542.75;5011398;28;45569;-77
2022/07/08 23:21:02;;;;;;;;;5.33;4.00;;;;;23.61;41.17;102549.06;5013254;28;46299;-78
2022/07/08 23:23:32;;;;;;;;;5.00;5.00;;;;;23.53;41.38;102543.91;5013041;28;45751;-80
2022/07/08 23:25:58;;;;;;;;;4.00;4.00;;;;;23.48;41.45;102541.34;5012705;28;45470;-79
2022/07/08 23:28:23;;;;;;;;;4.67;4.67;;;;;23.48;41.76;102552.09;5005348;28;45987;-78
2022/07/08 23:30:53;;;;;;;;;5.33;3.67;;;;;23.40;41.96;102535.31;5012358;28;46844;-78
2022/07/08 23:33:19;;;;;;;;;4.00;3.00;;;;;23.42;42.26;102544.22;5013251;28;45868;-78
2022/07/08 23:35:44;;;;;;;;;4.00;4.00;;;;;23.36;41.91;102548.88;5019128;28;45496;-78
2022/07/08 23:38:09;;;;;;;;;3.00;3.00;;;;;23.37;42.01;102559.59;5013286;28;45597;-78
2022/07/08 23:40:39;;;;;;;;;3.00;3.00;;;;;23.34;42.55;102552.50;5019044;28;46241;-79
2022/07/08 23:43:07;;;;;;;;;4.00;4.00;;;;;23.34;42.11;102557.00;5012733;28;45615;-78
2022/07/08 23:45:35;;;;;;;;;4.00;4.00;;;;;23.32;42.37;102554.34;5010646;28;45585;-78
2022/07/08 23:48:01;;;;;;;;;4.00;4.00;;;;;23.22;42.78;102543.88;5018640;28;45533;-78
2022/07/08 23:50:31;;;;;;;;;4.33;3.67;;;;;23.19;42.59;102550.22;5016687;28;46190;-78
2022/07/08 23:52:57;;;;;;;;;4.33;4.33;;;;;23.16;42.67;102546.75;5017480;28;45517;-78
2022/07/08 23:55:23;;;;;;;;;5.00;5.00;;;;;23.14;42.98;102546.78;5016887;28;45555;-79
2022/07/08 23:57:48;;;;;;;;;4.00;4.00;;;;;23.11;42.72;102546.88;5017381;28;46210;-78
